createdAt,value
2018-11-06T00:00:11.744Z,170.40
2018-11-06T00:02:40.120Z,167.93
2018-11-06T00:05:12.855Z,154.53
2018-11-06T00:07:41.860Z,159.63
2018-11-06T00:10:10.144Z,168.43
2018-11-06T00:12:38.303Z,163.60
2018-11-06T00:15:06.931Z,150.17
2018-11-06T00:17:35.067Z,154.57
2018-11-06T00:20:03.235Z,147.43
2018-11-06T00:22:31.345Z,154.83
2018-11-06T00:24:59.510Z,135.80
2018-11-06T00:27:27.664Z,154.43
2018-11-06T00:29:55.814Z,146.13
2018-11-06T00:32:23.932Z,132.00
2018-11-06T00:34:52.090Z,143.80
2018-11-06T00:37:20.259Z,163.60
2018-11-06T00:39:48.371Z,149.27
2018-11-06T00:42:16.506Z,143.87
2018-11-06T00:44:44.612Z,136.37
2018-11-06T00:47:12.731Z,136.97
2018-11-06T00:49:40.874Z,128.97
2018-11-06T00:52:08.997Z,146.67
2018-11-06T00:54:37.078Z,125.57
2018-11-06T00:57:05.360Z,143.83
2018-11-06T00:59:33.506Z,141.37
2018-11-06T01:02:01.598Z,154.27
2018-11-06T01:04:29.757Z,131.53
2018-11-06T01:06:57.831Z,143.33
2018-11-06T01:09:26.020Z,140.00
2018-11-06T01:11:54.175Z,143.87
2018-11-06T01:14:22.346Z,143.57
2018-11-06T01:16:50.532Z,139.77
2018-11-06T01:19:18.699Z,140.27
2018-11-06T01:21:46.874Z,142.27
2018-11-06T01:24:15.042Z,142.50
2018-11-06T01:26:43.236Z,135.23
2018-11-06T01:29:11.351Z,141.00
2018-11-06T01:31:39.492Z,152.83
2018-11-06T01:34:07.632Z,143.70
2018-11-06T01:36:35.821Z,141.30
2018-11-06T01:39:05.094Z,143.23
2018-11-06T01:41:33.194Z,138.70
2018-11-06T01:44:01.321Z,156.67
2018-11-06T01:46:29.422Z,133.60
2018-11-06T01:48:57.515Z,144.73
2018-11-06T01:51:25.598Z,152.00
2018-11-06T01:53:53.750Z,147.60
2018-11-06T01:56:21.842Z,140.97
2018-11-06T01:58:49.929Z,125.50
2018-11-06T02:01:18.110Z,124.93
2018-11-06T02:03:46.254Z,129.17
2018-11-06T02:06:14.428Z,134.37
2018-11-06T02:08:42.578Z,138.83
2018-11-06T02:11:10.725Z,129.03
2018-11-06T02:13:38.827Z,125.00
2018-11-06T02:16:07.138Z,130.43
2018-11-06T02:18:35.295Z,114.73
2018-11-06T02:21:03.398Z,119.47
2018-11-06T02:23:31.524Z,128.67
2018-11-06T02:25:59.703Z,117.40
2018-11-06T02:28:27.807Z,114.23
2018-11-06T02:30:55.899Z,117.03
2018-11-06T02:33:23.994Z,107.13
2018-11-06T02:35:52.108Z,115.83
2018-11-06T02:38:20.209Z,107.83
2018-11-06T02:40:48.370Z,113.63
2018-11-06T02:43:16.578Z,102.93
2018-11-06T02:45:44.705Z,111.87
2018-11-06T02:48:12.869Z,119.40
2018-11-06T02:50:41.046Z,126.60
2018-11-06T02:53:09.125Z,118.10
2018-11-06T02:55:37.300Z,107.90
2018-11-06T02:58:05.479Z,104.33
2018-11-06T03:00:33.618Z,126.73
2018-11-06T03:03:01.716Z,111.60
2018-11-06T03:05:29.843Z,109.30
2018-11-06T03:07:57.947Z,109.50
2018-11-06T03:10:26.206Z,116.47
2018-11-06T03:12:54.278Z,108.47
2018-11-06T03:15:22.378Z,107.27
2018-11-06T03:17:50.568Z,107.07
2018-11-06T03:20:18.699Z,111.53
2018-11-06T03:22:46.860Z,101.97
2018-11-06T03:25:14.959Z,114.13
2018-11-06T03:27:43.223Z,114.13
2018-11-06T03:30:13.225Z,97.63
2018-11-06T03:32:41.435Z,98.40
2018-11-06T03:35:10.822Z,103.47
2018-11-06T03:37:38.984Z,102.33
2018-11-06T03:40:07.754Z,101.80
2018-11-06T03:42:36.139Z,91.63
2018-11-06T03:45:04.468Z,89.20
2018-11-06T03:47:32.592Z,88.20
2018-11-06T03:50:00.983Z,98.87
2018-11-06T03:52:29.163Z,92.20
2018-11-06T03:54:57.395Z,89.80
2018-11-06T03:57:25.615Z,92.80
2018-11-06T03:59:53.774Z,92.03
2018-11-06T04:02:21.892Z,95.90
2018-11-06T04:04:50.051Z,96.37
2018-11-06T04:07:18.187Z,89.97
2018-11-06T04:09:46.280Z,95.27
2018-11-06T04:12:14.443Z,92.23
2018-11-06T04:14:42.620Z,84.97
2018-11-06T04:17:10.730Z,84.67
2018-11-06T04:19:38.866Z,87.00
2018-11-06T04:22:06.981Z,87.37
2018-11-06T04:24:35.110Z,82.93
2018-11-06T04:27:03.216Z,88.10
2018-11-06T04:29:31.352Z,77.90
2018-11-06T04:31:59.448Z,82.43
2018-11-06T04:34:27.561Z,81.77
2018-11-06T04:36:55.666Z,78.53
2018-11-06T04:39:23.853Z,80.13
2018-11-06T04:41:51.953Z,79.20
2018-11-06T04:44:20.066Z,76.33
2018-11-06T04:46:48.171Z,74.83
2018-11-06T04:49:16.267Z,72.03
2018-11-06T04:51:44.401Z,74.73
2018-11-06T04:54:12.507Z,71.47
2018-11-06T04:56:40.672Z,69.13
2018-11-06T04:59:08.823Z,79.67
2018-11-06T05:01:36.946Z,82.10
2018-11-06T05:04:05.262Z,69.87
2018-11-06T05:06:33.436Z,72.50
2018-11-06T05:09:01.565Z,73.13
2018-11-06T05:11:29.703Z,79.97
2018-11-06T05:13:57.883Z,66.50
2018-11-06T05:16:26.088Z,68.70
2018-11-06T05:18:54.178Z,72.77
2018-11-06T05:21:22.279Z,72.57
2018-11-06T05:23:50.471Z,68.00
2018-11-06T05:26:18.569Z,71.07
2018-11-06T05:28:46.740Z,71.63
2018-11-06T05:31:14.895Z,72.70
2018-11-06T05:33:43.535Z,79.83
2018-11-06T05:36:11.682Z,79.53
2018-11-06T05:38:39.854Z,74.40
2018-11-06T05:41:08.500Z,75.43
2018-11-06T05:43:37.508Z,74.83
2018-11-06T05:46:05.620Z,79.23
2018-11-06T05:48:33.850Z,73.17
2018-11-06T05:51:02.326Z,79.40
2018-11-06T05:53:30.447Z,67.67
2018-11-06T05:55:58.622Z,75.50
2018-11-06T05:58:26.731Z,72.27
2018-11-06T06:00:54.914Z,73.50
2018-11-06T06:03:23.115Z,70.90
2018-11-06T06:05:51.206Z,68.37
2018-11-06T06:08:19.320Z,69.63
2018-11-06T06:10:47.435Z,66.30
2018-11-06T06:13:15.564Z,67.80
2018-11-06T06:15:43.654Z,71.43
2018-11-06T06:18:11.764Z,70.60
2018-11-06T06:20:39.926Z,63.87
2018-11-06T06:23:08.071Z,62.13
2018-11-06T06:25:36.176Z,67.37
2018-11-06T06:28:04.316Z,62.97
2018-11-06T06:30:32.433Z,64.17
2018-11-06T06:33:00.562Z,59.67
2018-11-06T06:35:28.687Z,58.80
2018-11-06T06:37:56.839Z,61.13
2018-11-06T06:40:24.988Z,61.60
2018-11-06T06:42:53.139Z,57.33
2018-11-06T06:45:21.344Z,54.97
2018-11-06T06:47:49.470Z,57.40
2018-11-06T06:50:18.906Z,54.70
2018-11-06T06:52:47.690Z,60.27
2018-11-06T06:55:16.541Z,61.03
2018-11-06T06:57:47.616Z,54.53
2018-11-06T07:00:20.088Z,57.03
2018-11-06T07:02:48.315Z,57.73
2018-11-06T07:05:18.899Z,59.57
2018-11-06T07:07:47.070Z,60.47
2018-11-06T07:10:16.487Z,52.33
2018-11-06T07:12:45.148Z,60.97
2018-11-06T07:15:14.578Z,57.27
2018-11-06T07:17:43.363Z,59.50
2018-11-06T07:20:13.275Z,60.97
2018-11-06T07:22:41.398Z,56.87
2018-11-06T07:25:10.535Z,63.13
2018-11-06T07:27:39.237Z,55.53
2018-11-06T07:30:08.358Z,52.10
2018-11-06T07:32:36.747Z,52.40
2018-11-06T07:35:05.627Z,51.43
2018-11-06T07:37:33.559Z,49.30
2018-11-06T07:40:02.046Z,45.87
2018-11-06T07:42:30.152Z,49.40
2018-11-06T07:44:58.295Z,46.10
2018-11-06T07:47:26.384Z,45.90
2018-11-06T07:49:54.624Z,43.30
2018-11-06T07:52:22.707Z,42.60
2018-11-06T07:54:50.899Z,43.90
2018-11-06T07:57:19.149Z,39.70
2018-11-06T07:59:47.252Z,42.40
2018-11-06T08:02:15.347Z,41.07
2018-11-06T08:04:43.462Z,44.13
2018-11-06T08:07:11.674Z,42.10
2018-11-06T08:09:39.936Z,38.27
2018-11-06T08:12:08.043Z,38.17
2018-11-06T08:14:36.410Z,34.47
2018-11-06T08:17:04.907Z,36.97
2018-11-06T08:19:33.032Z,37.80
2018-11-06T08:22:01.136Z,32.67
2018-11-06T08:24:29.230Z,28.83
2018-11-06T08:26:57.349Z,31.27
2018-11-06T08:29:25.487Z,30.10
2018-11-06T08:31:53.721Z,30.30
2018-11-06T08:34:21.768Z,30.80
2018-11-06T08:36:49.927Z,29.40
2018-11-06T08:39:18.050Z,29.20
2018-11-06T08:41:46.195Z,27.47
2018-11-06T08:44:14.400Z,26.37
2018-11-06T08:46:42.574Z,26.40
2018-11-06T08:49:10.723Z,26.13
2018-11-06T08:51:38.893Z,27.23
2018-11-06T08:54:07.062Z,25.40
2018-11-06T08:56:35.248Z,28.53
2018-11-06T08:59:03.515Z,25.27
2018-11-06T09:01:31.632Z,22.97
2018-11-06T09:03:59.788Z,19.43
2018-11-06T09:06:27.925Z,19.87
2018-11-06T09:08:56.064Z,22.23
2018-11-06T09:11:24.207Z,20.10
2018-11-06T09:13:52.444Z,22.03
2018-11-06T09:16:20.638Z,22.37
2018-11-06T09:18:48.822Z,21.23
2018-11-06T09:21:16.971Z,23.80
2018-11-06T09:23:45.170Z,22.37
2018-11-06T09:26:13.349Z,19.97
2018-11-06T09:28:41.488Z,22.17
2018-11-06T09:31:09.709Z,22.43
2018-11-06T09:33:37.732Z,23.80
2018-11-06T09:36:05.907Z,24.93
2018-11-06T09:38:34.100Z,21.73
2018-11-06T09:41:02.358Z,19.47
2018-11-06T09:43:30.373Z,19.53
2018-11-06T09:45:58.499Z,23.60
2018-11-06T09:48:26.620Z,25.20
2018-11-06T09:50:54.779Z,21.53
2018-11-06T09:53:22.883Z,23.97
2018-11-06T09:55:51.003Z,21.33
2018-11-06T09:58:19.194Z,23.13
2018-11-06T10:00:47.303Z,21.63
2018-11-06T10:03:15.447Z,22.47
2018-11-06T10:05:43.554Z,21.53
2018-11-06T10:08:11.718Z,21.20
2018-11-06T10:10:39.843Z,20.60
2018-11-06T10:13:08.053Z,18.80
2018-11-06T10:15:36.205Z,20.33
2018-11-06T10:18:04.806Z,20.67
2018-11-06T10:20:32.941Z,17.87
2018-11-06T10:23:01.206Z,18.97
2018-11-06T10:25:29.446Z,18.90
2018-11-06T10:27:57.599Z,20.77
2018-11-06T10:30:25.762Z,21.20
2018-11-06T10:32:53.923Z,16.60
2018-11-06T10:35:22.132Z,19.47
2018-11-06T10:37:50.228Z,19.60
2018-11-06T10:40:19.779Z,22.17
2018-11-06T10:42:48.155Z,17.50
2018-11-06T10:45:16.834Z,22.43
2018-11-06T10:47:45.207Z,18.93
2018-11-06T10:50:14.108Z,18.50
2018-11-06T10:52:42.707Z,17.00
2018-11-06T10:55:11.161Z,19.33
2018-11-06T10:57:40.158Z,16.73
2018-11-06T11:00:13.498Z,16.67
2018-11-06T11:02:47.061Z,18.33
2018-11-06T11:05:15.431Z,16.07
2018-11-06T11:07:43.639Z,14.77
2018-11-06T11:10:12.299Z,14.70
2018-11-06T11:12:40.581Z,14.20
2018-11-06T11:15:08.624Z,14.73
2018-11-06T11:17:37.039Z,14.77
2018-11-06T11:20:06.398Z,15.90
2018-11-06T11:22:34.499Z,14.73
2018-11-06T11:25:02.590Z,16.70
2018-11-06T11:27:30.762Z,13.73
2018-11-06T11:29:58.872Z,15.03
2018-11-06T11:32:27.191Z,14.20
2018-11-06T11:34:55.292Z,14.37
2018-11-06T11:37:23.420Z,14.90
2018-11-06T11:39:51.523Z,16.43
2018-11-06T11:42:19.637Z,16.77
2018-11-06T11:44:47.796Z,13.87
2018-11-06T11:47:15.911Z,21.60
2018-11-06T11:49:44.042Z,15.57
2018-11-06T11:52:12.500Z,15.23
2018-11-06T11:54:40.594Z,14.30
2018-11-06T11:57:08.678Z,15.53
2018-11-06T11:59:36.917Z,14.63
2018-11-06T12:02:05.260Z,14.43
2018-11-06T12:04:33.388Z,17.23
2018-11-06T12:07:01.474Z,16.83
2018-11-06T12:09:29.650Z,15.63
2018-11-06T12:11:57.790Z,13.27
2018-11-06T12:14:25.895Z,15.53
2018-11-06T12:16:54.027Z,15.47
2018-11-06T12:19:22.135Z,15.30
2018-11-06T12:21:50.292Z,12.97
2018-11-06T12:24:18.578Z,11.77
2018-11-06T12:26:46.628Z,14.10
2018-11-06T12:29:14.802Z,16.97
2018-11-06T12:31:42.909Z,17.70
2018-11-06T12:34:11.097Z,15.07
2018-11-06T12:36:39.319Z,14.27
2018-11-06T12:39:08.724Z,14.53
2018-11-06T12:41:36.830Z,13.33
2018-11-06T12:44:04.924Z,12.87
2018-11-06T12:46:33.030Z,17.10
2018-11-06T12:49:01.147Z,14.17
2018-11-06T12:51:29.299Z,15.00
2018-11-06T12:53:57.447Z,12.13
2018-11-06T12:56:25.564Z,10.13
2018-11-06T12:58:53.843Z,10.30
2018-11-06T13:01:21.970Z,11.50
2018-11-06T13:03:50.058Z,12.60
2018-11-06T13:06:18.218Z,11.33
2018-11-06T13:08:46.345Z,10.27
2018-11-06T13:11:14.467Z,10.90
2018-11-06T13:13:42.683Z,9.83
2018-11-06T13:16:10.858Z,9.10
2018-11-06T13:18:38.912Z,11.57
2018-11-06T13:21:07.056Z,12.10
2018-11-06T13:23:35.276Z,14.30
2018-11-06T13:26:03.469Z,13.17
2018-11-06T13:28:31.596Z,12.83
2018-11-06T13:30:59.766Z,13.57
2018-11-06T13:33:27.927Z,18.20
2018-11-06T13:35:56.114Z,15.63
2018-11-06T13:38:24.219Z,16.40
2018-11-06T13:40:52.337Z,12.83
2018-11-06T13:43:20.639Z,13.03
2018-11-06T13:45:49.005Z,14.37
2018-11-06T13:48:17.088Z,13.20
2018-11-06T13:50:45.213Z,14.10
2018-11-06T13:53:13.315Z,15.10
2018-11-06T13:55:41.406Z,13.30
2018-11-06T13:58:09.500Z,13.20
2018-11-06T14:00:37.600Z,11.60
2018-11-06T14:03:05.711Z,11.87
2018-11-06T14:05:33.828Z,13.43
2018-11-06T14:08:01.948Z,13.60
2018-11-06T14:10:30.267Z,11.10
2018-11-06T14:12:58.370Z,12.53
2018-11-06T14:15:26.508Z,12.23
2018-11-06T14:17:54.610Z,10.83
2018-11-06T14:20:23.362Z,11.53
2018-11-06T14:22:51.518Z,9.33
2018-11-06T14:25:19.614Z,12.90
2018-11-06T14:27:47.719Z,11.57
2018-11-06T14:30:18.332Z,11.47
2018-11-06T14:32:46.987Z,13.67
2018-11-06T14:35:16.088Z,11.20
2018-11-06T14:37:44.850Z,13.10
2018-11-06T14:40:13.635Z,11.97
2018-11-06T14:42:42.145Z,10.63
2018-11-06T14:45:11.417Z,9.53
2018-11-06T14:47:39.617Z,10.60
2018-11-06T14:50:08.104Z,9.63
2018-11-06T14:52:36.449Z,10.33
2018-11-06T14:55:04.764Z,9.03
2018-11-06T14:57:32.987Z,8.40
2018-11-06T15:00:01.147Z,10.07
2018-11-06T15:02:29.256Z,8.93
2018-11-06T15:04:57.496Z,9.20
2018-11-06T15:07:25.606Z,8.70
2018-11-06T15:09:54.185Z,9.13
2018-11-06T15:12:22.320Z,9.57
2018-11-06T15:14:50.428Z,11.77
2018-11-06T15:17:18.590Z,9.87
2018-11-06T15:19:46.734Z,11.97
2018-11-06T15:22:14.865Z,10.30
2018-11-06T15:24:42.993Z,10.23
2018-11-06T15:27:11.108Z,8.87
2018-11-06T15:29:39.261Z,10.20
2018-11-06T15:32:07.440Z,9.60
2018-11-06T15:34:35.993Z,12.70
2018-11-06T15:37:04.065Z,8.83
2018-11-06T15:39:32.334Z,10.27
2018-11-06T15:42:01.568Z,10.77
2018-11-06T15:44:29.573Z,11.53
2018-11-06T15:46:57.750Z,10.77
2018-11-06T15:49:25.885Z,15.57
2018-11-06T15:51:54.059Z,10.63
2018-11-06T15:54:22.217Z,8.90
2018-11-06T15:56:50.348Z,10.10
2018-11-06T15:59:19.512Z,13.23
2018-11-06T16:01:47.659Z,10.70
2018-11-06T16:04:15.755Z,11.83
2018-11-06T16:06:43.922Z,13.50
2018-11-06T16:09:12.490Z,12.23
2018-11-06T16:11:40.771Z,11.10
2018-11-06T16:14:09.462Z,16.13
2018-11-06T16:16:37.607Z,12.10
2018-11-06T16:19:05.740Z,10.53
2018-11-06T16:21:35.207Z,14.17
2018-11-06T16:24:04.564Z,12.60
2018-11-06T16:26:33.045Z,11.60
2018-11-06T16:29:01.527Z,10.97
2018-11-06T16:31:29.745Z,10.63
2018-11-06T16:33:57.867Z,13.60
2018-11-06T16:36:25.988Z,15.00
2018-11-06T16:38:54.394Z,13.70
2018-11-06T16:41:23.397Z,15.83
2018-11-06T16:43:51.816Z,11.00
2018-11-06T16:46:19.928Z,12.30
2018-11-06T16:48:48.104Z,12.97
2018-11-06T16:51:17.117Z,12.47
2018-11-06T16:53:46.558Z,12.93
2018-11-06T16:56:14.823Z,13.27
2018-11-06T16:58:43.125Z,11.67
2018-11-06T17:01:11.478Z,15.13
2018-11-06T17:03:39.495Z,14.33
2018-11-06T17:06:16.315Z,16.87
2018-11-06T17:08:44.446Z,17.60
2018-11-06T17:11:12.595Z,14.23
2018-11-06T17:13:40.778Z,18.77
2018-11-06T17:16:10.180Z,19.00
2018-11-06T17:18:38.329Z,16.33
2018-11-06T17:21:07.526Z,22.43
2018-11-06T17:23:40.047Z,19.47
2018-11-06T17:26:09.520Z,20.67
2018-11-06T17:28:38.350Z,20.60
2018-11-06T17:31:06.597Z,19.20
2018-11-06T17:33:36.757Z,20.67
2018-11-06T17:36:05.230Z,19.77
2018-11-06T17:38:33.892Z,24.23
2018-11-06T17:41:02.630Z,19.73
2018-11-06T17:43:30.827Z,22.67
2018-11-06T17:45:59.064Z,22.40
2018-11-06T17:48:27.262Z,19.47
2018-11-06T17:50:55.490Z,21.93
2018-11-06T17:53:23.639Z,22.93
2018-11-06T17:55:51.749Z,20.93
2018-11-06T17:58:19.845Z,24.30
2018-11-06T18:00:48.062Z,21.50
2018-11-06T18:03:16.217Z,24.07
2018-11-06T18:05:44.379Z,21.33
2018-11-06T18:08:12.535Z,24.37
2018-11-06T18:10:40.804Z,26.23
2018-11-06T18:13:09.110Z,26.37
2018-11-06T18:15:37.292Z,26.80
2018-11-06T18:18:05.557Z,26.40
2018-11-06T18:20:33.634Z,22.33
2018-11-06T18:23:01.774Z,26.20
2018-11-06T18:25:30.079Z,25.27
2018-11-06T18:27:58.058Z,27.63
2018-11-06T18:30:26.322Z,26.27
2018-11-06T18:32:54.501Z,27.97
2018-11-06T18:35:22.656Z,27.67
2018-11-06T18:37:50.867Z,28.80
2018-11-06T18:40:20.033Z,29.50
2018-11-06T18:42:49.067Z,32.07
2018-11-06T18:45:17.232Z,28.57
2018-11-06T18:47:45.382Z,30.10
2018-11-06T18:50:14.798Z,33.20
2018-11-06T18:52:44.303Z,30.60
2018-11-06T18:55:12.478Z,32.13
2018-11-06T18:57:40.860Z,31.50
2018-11-06T19:00:11.479Z,30.97
2018-11-06T19:02:39.578Z,27.87
2018-11-06T19:05:07.715Z,25.53
2018-11-06T19:07:36.203Z,26.60
2018-11-06T19:10:04.583Z,30.67
2018-11-06T19:12:32.745Z,28.17
2018-11-06T19:15:00.923Z,26.70
2018-11-06T19:17:29.112Z,31.03
2018-11-06T19:19:57.277Z,26.27
2018-11-06T19:22:25.437Z,26.70
2018-11-06T19:24:53.685Z,27.90
2018-11-06T19:27:21.784Z,31.20
2018-11-06T19:29:49.931Z,28.67
2018-11-06T19:32:18.104Z,27.87
2018-11-06T19:34:46.324Z,28.73
2018-11-06T19:37:14.524Z,30.90
2018-11-06T19:39:43.733Z,31.67
2018-11-06T19:42:13.047Z,33.27
2018-11-06T19:44:41.213Z,28.60
2018-11-06T19:47:09.399Z,30.77
2018-11-06T19:49:37.665Z,29.50
2018-11-06T19:52:06.583Z,30.57
2018-11-06T19:54:34.952Z,25.57
2018-11-06T19:57:03.099Z,29.07
2018-11-06T19:59:31.679Z,25.70
2018-11-06T20:01:59.850Z,27.93
2018-11-06T20:04:28.067Z,27.20
2018-11-06T20:06:56.164Z,24.50
2018-11-06T20:09:24.268Z,24.60
2018-11-06T20:11:52.533Z,28.63
2018-11-06T20:14:20.706Z,27.27
2018-11-06T20:16:48.907Z,25.13
2018-11-06T20:19:17.094Z,23.40
2018-11-06T20:21:45.553Z,23.43
2018-11-06T20:24:13.725Z,24.17
2018-11-06T20:26:42.035Z,26.80
2018-11-06T20:29:10.244Z,25.27
2018-11-06T20:31:38.551Z,24.10
2018-11-06T20:34:06.813Z,23.07
2018-11-06T20:36:34.977Z,24.70
2018-11-06T20:39:03.204Z,21.83
2018-11-06T20:41:31.343Z,23.83
2018-11-06T20:43:59.499Z,22.67
2018-11-06T20:46:27.724Z,24.30
2018-11-06T20:48:55.828Z,23.23
2018-11-06T20:51:23.924Z,25.67
2018-11-06T20:53:52.069Z,25.00
2018-11-06T20:56:20.228Z,24.00
2018-11-06T20:58:48.462Z,22.47
2018-11-06T21:01:16.614Z,23.50
2018-11-06T21:03:44.797Z,20.47
2018-11-06T21:06:12.944Z,21.67
2018-11-06T21:08:41.101Z,20.77
2018-11-06T21:11:09.226Z,22.10
2018-11-06T21:13:37.464Z,22.33
2018-11-06T21:16:05.850Z,20.33
2018-11-06T21:18:35.513Z,19.63
2018-11-06T21:21:05.679Z,22.80
2018-11-06T21:23:33.889Z,19.33
2018-11-06T21:26:02.760Z,19.33
2018-11-06T21:28:30.761Z,22.93
2018-11-06T21:30:58.897Z,23.20
2018-11-06T21:33:27.659Z,20.57
2018-11-06T21:35:55.966Z,22.40
2018-11-06T21:38:24.124Z,20.07
2018-11-06T21:40:52.298Z,20.57
2018-11-06T21:43:20.476Z,18.33
2018-11-06T21:45:48.644Z,18.23
2018-11-06T21:48:17.333Z,16.13
2018-11-06T21:50:45.617Z,20.40
2018-11-06T21:53:13.847Z,16.60
2018-11-06T21:55:42.033Z,18.07
2018-11-06T21:58:10.178Z,18.40
2018-11-06T22:00:38.314Z,15.83
2018-11-06T22:03:06.483Z,17.00
2018-11-06T22:05:34.756Z,21.40
2018-11-06T22:08:02.987Z,17.30
2018-11-06T22:10:31.111Z,16.23
2018-11-06T22:12:59.331Z,18.13
2018-11-06T22:15:27.480Z,19.20
2018-11-06T22:17:55.637Z,17.77
2018-11-06T22:20:23.798Z,16.83
2018-11-06T22:22:52.019Z,15.83
2018-11-06T22:25:20.136Z,15.70
2018-11-06T22:27:48.252Z,17.30
2018-11-06T22:30:17.020Z,16.67
2018-11-06T22:32:46.120Z,15.10
2018-11-06T22:35:15.604Z,17.30
2018-11-06T22:37:43.799Z,14.20
2018-11-06T22:40:13.827Z,17.63
2018-11-06T22:42:42.022Z,15.60
2018-11-06T22:45:11.800Z,13.17
2018-11-06T22:47:40.163Z,15.40
2018-11-06T22:50:09.516Z,12.97
2018-11-06T22:52:37.651Z,14.93
2018-11-06T22:55:06.120Z,14.33
2018-11-06T22:57:34.705Z,11.90
2018-11-06T23:00:03.279Z,12.17
2018-11-06T23:02:31.415Z,14.40
2018-11-06T23:04:59.551Z,12.47
2018-11-06T23:07:33.007Z,13.07
2018-11-06T23:10:01.127Z,11.57
2018-11-06T23:12:29.471Z,11.17
2018-11-06T23:14:57.588Z,11.57
2018-11-06T23:17:25.732Z,12.57
2018-11-06T23:19:53.890Z,13.27
2018-11-06T23:22:22.060Z,11.70
2018-11-06T23:24:50.209Z,11.33
2018-11-06T23:27:18.311Z,11.23
2018-11-06T23:29:46.427Z,10.87
2018-11-06T23:32:14.537Z,11.37
2018-11-06T23:34:42.672Z,11.37
2018-11-06T23:37:10.824Z,11.90
2018-11-06T23:39:38.979Z,12.90
2018-11-06T23:42:07.162Z,10.80
2018-11-06T23:44:35.336Z,10.43
2018-11-06T23:47:03.457Z,11.53
2018-11-06T23:49:31.579Z,12.37
2018-11-06T23:51:59.745Z,10.07
2018-11-06T23:54:27.934Z,12.50
2018-11-06T23:56:56.094Z,10.10
2018-11-06T23:59:24.184Z,10.43
